sensor_id;sensor_type;location;lat;lon;timestamp;pressure;altitude;pressure_sealevel;temperature;humidity
42847;BME280;28495;49.916;14.536;2023-04-02T00:01:26;95849.53;;;8.88;71.17
42847;BME280;28495;49.916;14.536;2023-04-02T00:07:23;95845.16;;;8.89;70.90
42847;BME280;28495;49.916;14.536;2023-04-02T00:13:05;95858.97;;;8.89;71.24
42847;BME280;28495;49.916;14.536;2023-04-02T00:18:42;95859.53;;;9.01;71.19
42847;BME280;28495;49.916;14.536;2023-04-02T00:24:16;95856.94;;;9.01;71.04
42847;BME280;28495;49.916;14.536;2023-04-02T00:29:50;95864.44;;;9.04;71.35
42847;BME280;28495;49.916;14.536;2023-04-02T00:35:25;95866.03;;;8.97;71.16
42847;BME280;28495;49.916;14.536;2023-04-02T00:40:48;95865.69;;;9.00;71.06
42847;BME280;28495;49.916;14.536;2023-04-02T00:46:14;95873.97;;;8.95;71.08
42847;BME280;28495;49.916;14.536;2023-04-02T00:51:47;95876.94;;;9.00;71.21
42847;BME280;28495;49.916;14.536;2023-04-02T00:57:19;95867.28;;;8.93;71.34
42847;BME280;28495;49.916;14.536;2023-04-02T01:08:50;95881.25;;;8.92;71.71
42847;BME280;28495;49.916;14.536;2023-04-02T01:25:38;95884.69;;;8.92;71.65
42847;BME280;28495;49.916;14.536;2023-04-02T01:31:01;95891.50;;;8.93;71.37
42847;BME280;28495;49.916;14.536;2023-04-02T01:37:22;95904.59;;;8.83;71.55
42847;BME280;28495;49.916;14.536;2023-04-02T01:47:37;95907.34;;;8.82;72.13
42847;BME280;28495;49.916;14.536;2023-04-02T01:53:11;95915.13;;;8.82;72.18
42847;BME280;28495;49.916;14.536;2023-04-02T01:58:33;95908.38;;;8.71;71.52
42847;BME280;28495;49.916;14.536;2023-04-02T02:03:56;95916.34;;;8.51;72.06
42847;BME280;28495;49.916;14.536;2023-04-02T02:09:29;95916.56;;;8.58;72.05
42847;BME280;28495;49.916;14.536;2023-04-02T02:14:52;95917.44;;;8.49;72.01
42847;BME280;28495;49.916;14.536;2023-04-02T02:20:16;95920.25;;;8.37;71.89
42847;BME280;28495;49.916;14.536;2023-04-02T02:25:38;95926.63;;;8.43;72.76
42847;BME280;28495;49.916;14.536;2023-04-02T02:31:06;95927.34;;;8.35;72.70
42847;BME280;28495;49.916;14.536;2023-04-02T02:36:53;95933.59;;;8.52;72.88
42847;BME280;28495;49.916;14.536;2023-04-02T02:42:35;95941.81;;;8.66;72.65
42847;BME280;28495;49.916;14.536;2023-04-02T02:47:58;95950.72;;;8.63;72.53
42847;BME280;28495;49.916;14.536;2023-04-02T02:53:23;95950.81;;;8.53;72.52
42847;BME280;28495;49.916;14.536;2023-04-02T02:58:50;95955.50;;;8.40;72.52
42847;BME280;28495;49.916;14.536;2023-04-02T03:04:20;95959.38;;;8.36;72.69
42847;BME280;28495;49.916;14.536;2023-04-02T03:15:40;95969.53;;;8.47;73.26
42847;BME280;28495;49.916;14.536;2023-04-02T03:32:28;95978.34;;;8.64;72.89
42847;BME280;28495;49.916;14.536;2023-04-02T03:37:59;95984.00;;;8.60;73.19
42847;BME280;28495;49.916;14.536;2023-04-02T03:43:38;95992.16;;;8.65;72.87
42847;BME280;28495;49.916;14.536;2023-04-02T03:49:06;95989.13;;;8.69;73.39
42847;BME280;28495;49.916;14.536;2023-04-02T03:54:30;96002.13;;;8.69;73.10
42847;BME280;28495;49.916;14.536;2023-04-02T04:00:07;96011.84;;;8.67;72.84
42847;BME280;28495;49.916;14.536;2023-04-02T04:05:49;96017.34;;;8.64;73.45
42847;BME280;28495;49.916;14.536;2023-04-02T04:11:16;96023.38;;;8.65;73.19
42847;BME280;28495;49.916;14.536;2023-04-02T04:22:27;96039.44;;;8.50;73.38
42847;BME280;28495;49.916;14.536;2023-04-02T04:33:54;96060.72;;;8.26;73.27
42847;BME280;28495;49.916;14.536;2023-04-02T04:39:49;96062.88;;;8.03;73.12
42847;BME280;28495;49.916;14.536;2023-04-02T04:45:35;96080.38;;;7.91;73.27
42847;BME280;28495;49.916;14.536;2023-04-02T04:51:00;96098.19;;;7.86;73.46
42847;BME280;28495;49.916;14.536;2023-04-02T04:56:27;96097.75;;;7.90;73.99
42847;BME280;28495;49.916;14.536;2023-04-02T05:02:13;96106.50;;;7.80;73.71
42847;BME280;28495;49.916;14.536;2023-04-02T05:07:44;96114.81;;;7.83;74.01
42847;BME280;28495;49.916;14.536;2023-04-02T05:13:13;96130.97;;;7.77;73.70
42847;BME280;28495;49.916;14.536;2023-04-02T05:18:39;96141.09;;;7.51;73.62
42847;BME280;28495;49.916;14.536;2023-04-02T05:30:30;96166.75;;;6.83;73.09
42847;BME280;28495;49.916;14.536;2023-04-02T05:35:59;96174.75;;;6.61;73.56
42847;BME280;28495;49.916;14.536;2023-04-02T05:41:32;96185.31;;;6.48;73.44
42847;BME280;28495;49.916;14.536;2023-04-02T05:47:08;96199.97;;;6.37;73.92
42847;BME280;28495;49.916;14.536;2023-04-02T05:52:36;96207.00;;;6.25;73.68
42847;BME280;28495;49.916;14.536;2023-04-02T05:58:03;96218.69;;;6.20;73.92
42847;BME280;28495;49.916;14.536;2023-04-02T06:03:58;96218.38;;;6.13;73.72
42847;BME280;28495;49.916;14.536;2023-04-02T06:09:38;96230.84;;;6.08;73.93
42847;BME280;28495;49.916;14.536;2023-04-02T06:15:00;96240.47;;;6.17;74.22
42847;BME280;28495;49.916;14.536;2023-04-02T06:20:24;96256.50;;;6.11;73.95
42847;BME280;28495;49.916;14.536;2023-04-02T06:25:49;96268.44;;;6.02;73.66
42847;BME280;28495;49.916;14.536;2023-04-02T06:31:38;96276.44;;;5.88;73.84
42847;BME280;28495;49.916;14.536;2023-04-02T06:37:11;96290.38;;;5.75;73.43
42847;BME280;28495;49.916;14.536;2023-04-02T06:42:37;96302.03;;;5.70;73.55
42847;BME280;28495;49.916;14.536;2023-04-02T06:48:16;96317.13;;;5.42;73.41
42847;BME280;28495;49.916;14.536;2023-04-02T06:53:49;96334.28;;;5.43;73.84
42847;BME280;28495;49.916;14.536;2023-04-02T06:59:13;96352.88;;;5.25;73.25
42847;BME280;28495;49.916;14.536;2023-04-02T07:04:35;96359.56;;;5.39;73.88
42847;BME280;28495;49.916;14.536;2023-04-02T07:09:56;96371.19;;;5.33;73.90
42847;BME280;28495;49.916;14.536;2023-04-02T07:15:18;96383.66;;;5.28;73.74
42847;BME280;28495;49.916;14.536;2023-04-02T07:20:39;96400.34;;;5.36;73.96
42847;BME280;28495;49.916;14.536;2023-04-02T07:26:07;96398.09;;;5.42;74.10
42847;BME280;28495;49.916;14.536;2023-04-02T07:31:28;96416.94;;;5.33;73.64
42847;BME280;28495;49.916;14.536;2023-04-02T07:36:49;96433.56;;;5.06;73.37
42847;BME280;28495;49.916;14.536;2023-04-02T07:42:09;96431.81;;;5.07;74.12
42847;BME280;28495;49.916;14.536;2023-04-02T07:47:30;96448.38;;;5.04;73.51
42847;BME280;28495;49.916;14.536;2023-04-02T07:52:51;96458.59;;;5.06;73.39
42847;BME280;28495;49.916;14.536;2023-04-02T07:58:11;96466.88;;;4.86;73.15
42847;BME280;28495;49.916;14.536;2023-04-02T08:03:32;96475.72;;;4.71;73.51
42847;BME280;28495;49.916;14.536;2023-04-02T08:08:53;96488.97;;;4.66;73.53
42847;BME280;28495;49.916;14.536;2023-04-02T08:14:14;96498.38;;;4.67;73.46
42847;BME280;28495;49.916;14.536;2023-04-02T08:19:36;96516.78;;;4.63;73.69
42847;BME280;28495;49.916;14.536;2023-04-02T08:25:14;96522.66;;;4.65;73.21
42847;BME280;28495;49.916;14.536;2023-04-02T08:30:35;96539.03;;;4.77;73.57
42847;BME280;28495;49.916;14.536;2023-04-02T08:35:56;96545.47;;;4.71;73.54
42847;BME280;28495;49.916;14.536;2023-04-02T08:41:22;96563.19;;;4.64;73.46
42847;BME280;28495;49.916;14.536;2023-04-02T08:47:08;96571.47;;;4.56;72.98
42847;BME280;28495;49.916;14.536;2023-04-02T08:52:35;96580.13;;;4.55;72.85
42847;BME280;28495;49.916;14.536;2023-04-02T08:58:08;96585.44;;;4.41;73.02
42847;BME280;28495;49.916;14.536;2023-04-02T09:03:40;96600.25;;;4.63;73.55
42847;BME280;28495;49.916;14.536;2023-04-02T09:09:02;96603.56;;;4.65;72.85
42847;BME280;28495;49.916;14.536;2023-04-02T09:14:44;96615.75;;;4.63;73.39
42847;BME280;28495;49.916;14.536;2023-04-02T09:20:16;96628.03;;;4.72;73.03
42847;BME280;28495;49.916;14.536;2023-04-02T09:25:42;96635.97;;;4.82;73.24
42847;BME280;28495;49.916;14.536;2023-04-02T09:31:25;96634.69;;;4.88;73.29
42847;BME280;28495;49.916;14.536;2023-04-02T09:36:50;96656.41;;;4.98;73.04
42847;BME280;28495;49.916;14.536;2023-04-02T09:42:30;96663.09;;;5.01;73.09
42847;BME280;28495;49.916;14.536;2023-04-02T09:47:52;96674.69;;;4.95;72.92
42847;BME280;28495;49.916;14.536;2023-04-02T09:53:29;96678.41;;;5.04;73.02
42847;BME280;28495;49.916;14.536;2023-04-02T09:59:05;96694.63;;;5.06;72.86
42847;BME280;28495;49.916;14.536;2023-04-02T10:04:44;96697.22;;;4.93;72.66
42847;BME280;28495;49.916;14.536;2023-04-02T10:10:28;96706.03;;;4.91;72.36
42847;BME280;28495;49.916;14.536;2023-04-02T10:16:13;96710.81;;;4.84;72.36
42847;BME280;28495;49.916;14.536;2023-04-02T10:21:37;96715.97;;;4.84;72.24
42847;BME280;28495;49.916;14.536;2023-04-02T10:33:11;96742.00;;;4.68;72.08
42847;BME280;28495;49.916;14.536;2023-04-02T10:38:45;96750.59;;;4.68;72.16
42847;BME280;28495;49.916;14.536;2023-04-02T10:44:21;96754.09;;;4.54;71.90
42847;BME280;28495;49.916;14.536;2023-04-02T10:50:04;96764.13;;;4.46;71.77
42847;BME280;28495;49.916;14.536;2023-04-02T10:55:31;96768.78;;;4.41;71.79
42847;BME280;28495;49.916;14.536;2023-04-02T11:01:10;96780.84;;;4.40;71.51
42847;BME280;28495;49.916;14.536;2023-04-02T11:12:03;96804.31;;;4.37;71.70
42847;BME280;28495;49.916;14.536;2023-04-02T11:17:27;96809.13;;;4.29;71.40
42847;BME280;28495;49.916;14.536;2023-04-02T11:23:12;96823.56;;;4.19;71.55
42847;BME280;28495;49.916;14.536;2023-04-02T11:28:34;96834.88;;;4.16;73.66
42847;BME280;28495;49.916;14.536;2023-04-02T11:33:55;96846.88;;;4.17;71.54
42847;BME280;28495;49.916;14.536;2023-04-02T11:50:43;96872.47;;;4.07;71.12
42847;BME280;28495;49.916;14.536;2023-04-02T11:56:16;96876.31;;;4.15;71.04
42847;BME280;28495;49.916;14.536;2023-04-02T12:08:27;96895.91;;;4.45;71.11
42847;BME280;28495;49.916;14.536;2023-04-02T12:13:20;96902.31;;;4.39;70.81
42847;BME280;28495;49.916;14.536;2023-04-02T12:18:46;96910.91;;;4.25;70.90
42847;BME280;28495;49.916;14.536;2023-04-02T12:24:17;96912.97;;;4.20;70.97
42847;BME280;28495;49.916;14.536;2023-04-02T12:29:40;96916.06;;;4.12;70.45
42847;BME280;28495;49.916;14.536;2023-04-02T12:35:02;96927.78;;;4.03;70.81
42847;BME280;28495;49.916;14.536;2023-04-02T12:40:24;96938.28;;;4.00;71.08
42847;BME280;28495;49.916;14.536;2023-04-02T12:45:53;96937.47;;;4.00;70.81
42847;BME280;28495;49.916;14.536;2023-04-02T12:51:15;96954.50;;;4.02;71.47
42847;BME280;28495;49.916;14.536;2023-04-02T12:56:37;96957.91;;;3.88;71.21
42847;BME280;28495;49.916;14.536;2023-04-02T13:01:59;96968.53;;;3.84;71.30
42847;BME280;28495;49.916;14.536;2023-04-02T13:07:23;96965.19;;;3.81;71.39
42847;BME280;28495;49.916;14.536;2023-04-02T13:12:45;96965.03;;;3.85;71.17
42847;BME280;28495;49.916;14.536;2023-04-02T13:18:16;96971.28;;;3.95;71.09
42847;BME280;28495;49.916;14.536;2023-04-02T13:23:38;96979.41;;;3.89;71.15
42847;BME280;28495;49.916;14.536;2023-04-02T13:34:22;96993.75;;;3.64;70.96
42847;BME280;28495;49.916;14.536;2023-04-02T13:39:43;97007.09;;;3.56;70.98
42847;BME280;28495;49.916;14.536;2023-04-02T13:45:05;97014.38;;;3.49;71.61
42847;BME280;28495;49.916;14.536;2023-04-02T13:50:36;97019.53;;;3.49;70.95
42847;BME280;28495;49.916;14.536;2023-04-02T13:55:57;97028.94;;;3.50;71.21
42847;BME280;28495;49.916;14.536;2023-04-02T14:01:19;97039.72;;;3.57;70.65
42847;BME280;28495;49.916;14.536;2023-04-02T14:30:21;97074.81;;;3.29;70.50
42847;BME280;28495;49.916;14.536;2023-04-02T14:35:45;97077.50;;;3.28;70.99
42847;BME280;28495;49.916;14.536;2023-04-02T14:41:14;97081.59;;;3.32;71.11
42847;BME280;28495;49.916;14.536;2023-04-02T14:46:37;97086.47;;;3.37;70.81
42847;BME280;28495;49.916;14.536;2023-04-02T14:52:03;97083.78;;;3.38;70.53
42847;BME280;28495;49.916;14.536;2023-04-02T14:57:35;97092.09;;;3.43;70.65
42847;BME280;28495;49.916;14.536;2023-04-02T15:08:43;97108.22;;;3.47;70.49
42847;BME280;28495;49.916;14.536;2023-04-02T15:14:19;97111.38;;;3.52;71.30
42847;BME280;28495;49.916;14.536;2023-04-02T15:19:41;97112.63;;;3.45;70.26
42847;BME280;28495;49.916;14.536;2023-04-02T15:31:13;97131.28;;;3.34;70.30
42847;BME280;28495;49.916;14.536;2023-04-02T15:42:18;97144.94;;;3.20;70.44
42847;BME280;28495;49.916;14.536;2023-04-02T15:48:01;97151.69;;;3.23;70.71
42847;BME280;28495;49.916;14.536;2023-04-02T15:53:33;97173.47;;;3.17;70.33
42847;BME280;28495;49.916;14.536;2023-04-02T16:10:37;97192.75;;;3.26;70.60
42847;BME280;28495;49.916;14.536;2023-04-02T16:16:39;97193.25;;;3.16;69.75
42847;BME280;28495;49.916;14.536;2023-04-02T16:22:15;97201.06;;;3.31;70.54
42847;BME280;28495;49.916;14.536;2023-04-02T16:27:40;97208.22;;;3.26;70.46
42847;BME280;28495;49.916;14.536;2023-04-02T16:50:14;97221.25;;;3.23;70.09
42847;BME280;28495;49.916;14.536;2023-04-02T16:55:35;97235.84;;;3.40;71.07
42847;BME280;28495;49.916;14.536;2023-04-02T17:07:43;97249.81;;;3.35;69.84
42847;BME280;28495;49.916;14.536;2023-04-02T17:18:00;97257.03;;;3.45;70.24
42847;BME280;28495;49.916;14.536;2023-04-02T17:23:23;97270.56;;;3.48;69.67
42847;BME280;28495;49.916;14.536;2023-04-02T17:28:46;97273.34;;;3.45;69.75
42847;BME280;28495;49.916;14.536;2023-04-02T17:34:12;97283.31;;;3.35;69.49
42847;BME280;28495;49.916;14.536;2023-04-02T17:39:44;97284.00;;;4.02;70.66
42847;BME280;28495;49.916;14.536;2023-04-02T17:45:27;97287.06;;;3.62;69.75
42847;BME280;28495;49.916;14.536;2023-04-02T17:51:19;97295.13;;;3.40;69.71
42847;BME280;28495;49.916;14.536;2023-04-02T18:08:40;97321.31;;;3.48;69.19
42847;BME280;28495;49.916;14.536;2023-04-02T18:14:06;97327.91;;;3.38;69.80
42847;BME280;28495;49.916;14.536;2023-04-02T18:48:37;97378.94;;;3.31;70.30
42847;BME280;28495;49.916;14.536;2023-04-02T18:54:14;97377.59;;;3.24;69.59
42847;BME280;28495;49.916;14.536;2023-04-02T19:05:30;97393.16;;;3.22;69.53
42847;BME280;28495;49.916;14.536;2023-04-02T19:11:14;97405.78;;;3.27;70.08
42847;BME280;28495;49.916;14.536;2023-04-02T19:17:29;97407.22;;;3.32;70.16
42847;BME280;28495;49.916;14.536;2023-04-02T19:22:38;97413.19;;;3.33;69.94
42847;BME280;28495;49.916;14.536;2023-04-02T19:28:25;97414.13;;;3.32;69.57
42847;BME280;28495;49.916;14.536;2023-04-02T19:34:06;97419.97;;;3.35;70.05
42847;BME280;28495;49.916;14.536;2023-04-02T19:44:55;97426.69;;;3.38;69.52
42847;BME280;28495;49.916;14.536;2023-04-02T19:50:16;97429.13;;;3.41;69.74
42847;BME280;28495;49.916;14.536;2023-04-02T19:55:38;97433.13;;;3.47;70.25
42847;BME280;28495;49.916;14.536;2023-04-02T20:00:59;97440.09;;;3.45;69.50
42847;BME280;28495;49.916;14.536;2023-04-02T20:06:21;97444.19;;;3.49;70.26
42847;BME280;28495;49.916;14.536;2023-04-02T20:11:41;97440.75;;;3.48;69.92
42847;BME280;28495;49.916;14.536;2023-04-02T20:17:03;97445.72;;;3.53;69.42
42847;BME280;28495;49.916;14.536;2023-04-02T20:22:24;97446.94;;;4.11;72.79
42847;BME280;28495;49.916;14.536;2023-04-02T20:27:45;97447.53;;;4.01;69.62
42847;BME280;28495;49.916;14.536;2023-04-02T20:33:06;97460.66;;;3.80;69.65
42847;BME280;28495;49.916;14.536;2023-04-02T20:38:27;97467.53;;;3.63;69.32
42847;BME280;28495;49.916;14.536;2023-04-02T20:43:50;97479.00;;;3.58;69.81
42847;BME280;28495;49.916;14.536;2023-04-02T20:49:10;97486.44;;;3.46;69.62
42847;BME280;28495;49.916;14.536;2023-04-02T20:54:32;97489.84;;;3.47;69.50
42847;BME280;28495;49.916;14.536;2023-04-02T20:59:52;97500.84;;;3.50;70.05
42847;BME280;28495;49.916;14.536;2023-04-02T21:05:13;97499.09;;;3.51;69.66
42847;BME280;28495;49.916;14.536;2023-04-02T21:10:35;97496.59;;;3.49;69.49
42847;BME280;28495;49.916;14.536;2023-04-02T21:15:56;97497.81;;;3.42;69.19
42847;BME280;28495;49.916;14.536;2023-04-02T21:21:17;97486.59;;;3.43;69.67
42847;BME280;28495;49.916;14.536;2023-04-02T21:26:40;97492.34;;;3.48;69.22
42847;BME280;28495;49.916;14.536;2023-04-02T21:32:01;97495.00;;;3.47;69.41
42847;BME280;28495;49.916;14.536;2023-04-02T21:37:37;97495.22;;;3.60;69.85
42847;BME280;28495;49.916;14.536;2023-04-02T21:42:58;97502.44;;;3.53;69.12
42847;BME280;28495;49.916;14.536;2023-04-02T21:48:19;97501.69;;;3.51;69.06
42847;BME280;28495;49.916;14.536;2023-04-02T21:53:41;97502.13;;;3.42;69.26
42847;BME280;28495;49.916;14.536;2023-04-02T21:59:04;97508.00;;;3.45;69.44
42847;BME280;28495;49.916;14.536;2023-04-02T22:04:26;97503.88;;;3.41;69.64
42847;BME280;28495;49.916;14.536;2023-04-02T22:09:48;97504.66;;;3.43;69.27
42847;BME280;28495;49.916;14.536;2023-04-02T22:15:10;97512.38;;;3.43;69.17
42847;BME280;28495;49.916;14.536;2023-04-02T22:20:31;97518.31;;;3.45;69.63
42847;BME280;28495;49.916;14.536;2023-04-02T22:25:52;97512.53;;;3.40;69.35
42847;BME280;28495;49.916;14.536;2023-04-02T22:31:22;97524.38;;;3.44;69.63
42847;BME280;28495;49.916;14.536;2023-04-02T22:36:43;97519.59;;;3.54;69.63
42847;BME280;28495;49.916;14.536;2023-04-02T22:42:04;97519.50;;;3.56;69.23
42847;BME280;28495;49.916;14.536;2023-04-02T22:47:25;97527.31;;;3.54;69.65
42847;BME280;28495;49.916;14.536;2023-04-02T22:52:46;97521.41;;;3.52;69.41
42847;BME280;28495;49.916;14.536;2023-04-02T22:58:06;97522.16;;;3.54;69.44
42847;BME280;28495;49.916;14.536;2023-04-02T23:03:27;97526.41;;;3.55;69.56
42847;BME280;28495;49.916;14.536;2023-04-02T23:08:48;97533.22;;;3.56;69.59
42847;BME280;28495;49.916;14.536;2023-04-02T23:14:08;97527.91;;;3.59;69.08
42847;BME280;28495;49.916;14.536;2023-04-02T23:19:29;97530.97;;;3.50;69.70
42847;BME280;28495;49.916;14.536;2023-04-02T23:24:50;97532.63;;;3.51;69.28
42847;BME280;28495;49.916;14.536;2023-04-02T23:30:13;97532.63;;;3.51;69.29
42847;BME280;28495;49.916;14.536;2023-04-02T23:35:34;97526.31;;;3.57;69.42
42847;BME280;28495;49.916;14.536;2023-04-02T23:40:55;97525.81;;;3.50;68.97
42847;BME280;28495;49.916;14.536;2023-04-02T23:46:16;97530.72;;;3.55;68.89
42847;BME280;28495;49.916;14.536;2023-04-02T23:51:37;97521.41;;;3.52;69.21
42847;BME280;28495;49.916;14.536;2023-04-02T23:56:58;97516.41;;;3.49;69.59
